sensor_id;sensor_type;location;lat;lon;timestamp;pressure;altitude;pressure_sealevel;temperature;humidity
804;BME280;25687;49.976;8.240;2023-05-07T00:00:50;100052.56;;;15.22;100.00
804;BME280;25687;49.976;8.240;2023-05-07T00:03:16;100044.69;;;15.23;100.00
804;BME280;25687;49.976;8.240;2023-05-07T00:05:41;100057.53;;;15.25;100.00
804;BME280;25687;49.976;8.240;2023-05-07T00:08:07;100051.16;;;15.29;100.00
804;BME280;25687;49.976;8.240;2023-05-07T00:10:33;100047.41;;;15.33;100.00
804;BME280;25687;49.976;8.240;2023-05-07T00:12:58;100048.38;;;15.32;100.00
804;BME280;25687;49.976;8.240;2023-05-07T00:15:23;100050.81;;;15.33;100.00
804;BME280;25687;49.976;8.240;2023-05-07T00:17:49;100050.94;;;15.32;100.00
804;BME280;25687;49.976;8.240;2023-05-07T00:20:14;100043.41;;;15.29;100.00
804;BME280;25687;49.976;8.240;2023-05-07T00:22:39;100051.16;;;15.29;100.00
804;BME280;25687;49.976;8.240;2023-05-07T00:25:05;100045.50;;;15.24;100.00
804;BME280;25687;49.976;8.240;2023-05-07T00:27:30;100049.63;;;15.15;100.00
804;BME280;25687;49.976;8.240;2023-05-07T00:29:56;100045.38;;;15.14;100.00
804;BME280;25687;49.976;8.240;2023-05-07T00:32:21;100043.72;;;15.13;100.00
804;BME280;25687;49.976;8.240;2023-05-07T00:34:46;100042.88;;;15.01;100.00
804;BME280;25687;49.976;8.240;2023-05-07T00:37:11;100032.16;;;15.06;100.00
804;BME280;25687;49.976;8.240;2023-05-07T00:39:37;100033.56;;;14.98;100.00
804;BME280;25687;49.976;8.240;2023-05-07T00:42:02;100038.00;;;14.85;100.00
804;BME280;25687;49.976;8.240;2023-05-07T00:44:28;100027.31;;;14.90;100.00
804;BME280;25687;49.976;8.240;2023-05-07T00:46:55;100032.38;;;14.91;100.00
804;BME280;25687;49.976;8.240;2023-05-07T00:49:21;100034.38;;;14.99;100.00
804;BME280;25687;49.976;8.240;2023-05-07T00:51:47;100034.19;;;15.02;100.00
804;BME280;25687;49.976;8.240;2023-05-07T00:54:13;100040.38;;;14.99;100.00
804;BME280;25687;49.976;8.240;2023-05-07T00:56:38;100036.75;;;15.02;100.00
804;BME280;25687;49.976;8.240;2023-05-07T00:59:05;100027.81;;;15.06;100.00
804;BME280;25687;49.976;8.240;2023-05-07T01:01:31;100034.53;;;15.09;100.00
804;BME280;25687;49.976;8.240;2023-05-07T01:03:57;100025.34;;;15.05;100.00
804;BME280;25687;49.976;8.240;2023-05-07T01:06:23;100032.16;;;15.06;100.00
804;BME280;25687;49.976;8.240;2023-05-07T01:08:51;100025.56;;;15.13;100.00
804;BME280;25687;49.976;8.240;2023-05-07T01:11:18;100031.34;;;15.05;100.00
804;BME280;25687;49.976;8.240;2023-05-07T01:13:45;100028.41;;;14.98;100.00
804;BME280;25687;49.976;8.240;2023-05-07T01:16:11;100029.78;;;14.91;100.00
804;BME280;25687;49.976;8.240;2023-05-07T01:18:37;100035.78;;;14.92;100.00
804;BME280;25687;49.976;8.240;2023-05-07T01:21:04;100033.44;;;14.89;100.00
804;BME280;25687;49.976;8.240;2023-05-07T01:23:29;100032.38;;;14.91;100.00
804;BME280;25687;49.976;8.240;2023-05-07T01:25:55;100028.94;;;14.91;100.00
804;BME280;25687;49.976;8.240;2023-05-07T01:28:21;100028.69;;;14.82;100.00
804;BME280;25687;49.976;8.240;2023-05-07T01:30:54;100019.00;;;14.73;100.00
804;BME280;25687;49.976;8.240;2023-05-07T01:33:21;100013.00;;;14.73;100.00
804;BME280;25687;49.976;8.240;2023-05-07T01:35:50;100023.38;;;14.60;100.00
804;BME280;25687;49.976;8.240;2023-05-07T01:38:16;100014.16;;;14.68;100.00
804;BME280;25687;49.976;8.240;2023-05-07T01:40:43;100013.00;;;14.73;100.00
804;BME280;25687;49.976;8.240;2023-05-07T01:43:09;100018.41;;;14.69;100.00
804;BME280;25687;49.976;8.240;2023-05-07T01:45:34;100007.00;;;14.72;100.00
804;BME280;25687;49.976;8.240;2023-05-07T01:48:01;100003.72;;;14.70;100.00
804;BME280;25687;49.976;8.240;2023-05-07T01:50:27;100006.50;;;14.67;100.00
804;BME280;25687;49.976;8.240;2023-05-07T01:52:52;100006.38;;;14.68;100.00
804;BME280;25687;49.976;8.240;2023-05-07T01:55:18;100012.69;;;14.64;100.00
804;BME280;25687;49.976;8.240;2023-05-07T01:57:43;100011.03;;;14.63;100.00
804;BME280;25687;49.976;8.240;2023-05-07T02:00:09;99998.09;;;14.63;100.00
804;BME280;25687;49.976;8.240;2023-05-07T02:02:34;100006.81;;;14.62;100.00
804;BME280;25687;49.976;8.240;2023-05-07T02:05:00;100008.81;;;14.59;100.00
804;BME280;25687;49.976;8.240;2023-05-07T02:07:26;100013.16;;;14.58;100.00
804;BME280;25687;49.976;8.240;2023-05-07T02:09:52;100021.03;;;14.57;100.00
804;BME280;25687;49.976;8.240;2023-05-07T02:12:17;100024.91;;;14.62;100.00
804;BME280;25687;49.976;8.240;2023-05-07T02:14:42;100030.09;;;14.62;100.00
804;BME280;25687;49.976;8.240;2023-05-07T02:17:08;100018.81;;;14.63;100.00
804;BME280;25687;49.976;8.240;2023-05-07T02:19:33;100017.78;;;14.66;100.00
804;BME280;25687;49.976;8.240;2023-05-07T02:21:58;100015.00;;;14.69;100.00
804;BME280;25687;49.976;8.240;2023-05-07T02:24:24;100021.41;;;14.63;100.00
804;BME280;25687;49.976;8.240;2023-05-07T02:26:49;100026.53;;;14.65;100.00
804;BME280;25687;49.976;8.240;2023-05-07T02:29:14;100021.38;;;14.52;100.00
804;BME280;25687;49.976;8.240;2023-05-07T02:31:40;100021.16;;;14.55;100.00
804;BME280;25687;49.976;8.240;2023-05-07T02:34:05;100020.19;;;14.56;100.00
804;BME280;25687;49.976;8.240;2023-05-07T02:36:30;100019.75;;;14.62;100.00
804;BME280;25687;49.976;8.240;2023-05-07T02:38:55;100024.75;;;14.65;100.00
804;BME280;25687;49.976;8.240;2023-05-07T02:41:21;100016.34;;;14.62;100.00
804;BME280;25687;49.976;8.240;2023-05-07T02:43:46;100014.69;;;14.61;100.00
804;BME280;25687;49.976;8.240;2023-05-07T02:46:11;100008.97;;;14.68;100.00
804;BME280;25687;49.976;8.240;2023-05-07T02:48:37;100019.34;;;14.68;100.00
804;BME280;25687;49.976;8.240;2023-05-07T02:51:03;100019.94;;;14.72;100.00
804;BME280;25687;49.976;8.240;2023-05-07T02:53:28;100021.59;;;14.73;100.00
804;BME280;25687;49.976;8.240;2023-05-07T02:55:58;100020.91;;;14.71;100.00
804;BME280;25687;49.976;8.240;2023-05-07T02:58:24;100018.19;;;14.73;100.00
804;BME280;25687;49.976;8.240;2023-05-07T03:00:49;100017.47;;;14.71;100.00
804;BME280;25687;49.976;8.240;2023-05-07T03:03:15;100015.59;;;14.73;100.00
804;BME280;25687;49.976;8.240;2023-05-07T03:05:40;100013.38;;;14.79;100.00
804;BME280;25687;49.976;8.240;2023-05-07T03:08:06;100021.47;;;14.75;100.00
804;BME280;25687;49.976;8.240;2023-05-07T03:10:32;100028.53;;;14.73;100.00
804;BME280;25687;49.976;8.240;2023-05-07T03:12:57;100022.53;;;14.72;100.00
804;BME280;25687;49.976;8.240;2023-05-07T03:15:22;100008.97;;;14.68;100.00
804;BME280;25687;49.976;8.240;2023-05-07T03:17:48;100002.69;;;14.60;100.00
804;BME280;25687;49.976;8.240;2023-05-07T03:20:13;100002.06;;;14.56;100.00
804;BME280;25687;49.976;8.240;2023-05-07T03:22:39;100003.63;;;14.59;100.00
804;BME280;25687;49.976;8.240;2023-05-07T03:25:05;100001.22;;;14.68;100.00
804;BME280;25687;49.976;8.240;2023-05-07T03:27:30;100002.06;;;14.56;100.00
804;BME280;25687;49.976;8.240;2023-05-07T03:29:55;100000.44;;;14.55;100.00
804;BME280;25687;49.976;8.240;2023-05-07T03:32:21;99991.50;;;14.59;100.00
804;BME280;25687;49.976;8.240;2023-05-07T03:34:46;99992.44;;;14.58;100.00
804;BME280;25687;49.976;8.240;2023-05-07T03:37:11;99990.56;;;14.60;100.00
804;BME280;25687;49.976;8.240;2023-05-07T03:39:36;99986.53;;;14.56;100.00
804;BME280;25687;49.976;8.240;2023-05-07T03:42:02;99986.78;;;14.53;100.00
804;BME280;25687;49.976;8.240;2023-05-07T03:44:27;99990.41;;;14.50;100.00
804;BME280;25687;49.976;8.240;2023-05-07T03:46:53;99992.06;;;14.51;100.00
804;BME280;25687;49.976;8.240;2023-05-07T03:49:18;99990.09;;;14.55;100.00
804;BME280;25687;49.976;8.240;2023-05-07T03:51:43;99989.81;;;14.47;100.00
804;BME280;25687;49.976;8.240;2023-05-07T03:54:08;99998.19;;;14.50;100.00
804;BME280;25687;49.976;8.240;2023-05-07T03:56:34;99997.09;;;14.42;100.00
804;BME280;25687;49.976;8.240;2023-05-07T03:59:00;100003.88;;;14.31;100.00
804;BME280;25687;49.976;8.240;2023-05-07T04:01:26;99999.97;;;14.26;100.00
804;BME280;25687;49.976;8.240;2023-05-07T04:03:51;100003.47;;;14.25;100.00
804;BME280;25687;49.976;8.240;2023-05-07T04:06:17;100002.88;;;14.45;100.00
804;BME280;25687;49.976;8.240;2023-05-07T04:08:45;100006.56;;;14.54;100.00
804;BME280;25687;49.976;8.240;2023-05-07T04:11:11;100005.19;;;14.61;100.00
804;BME280;25687;49.976;8.240;2023-05-07T04:13:36;100012.28;;;14.71;100.00
804;BME280;25687;49.976;8.240;2023-05-07T04:16:02;100012.78;;;14.76;100.00
804;BME280;25687;49.976;8.240;2023-05-07T04:18:28;100013.03;;;14.84;100.00
804;BME280;25687;49.976;8.240;2023-05-07T04:20:54;100015.97;;;14.79;100.00
804;BME280;25687;49.976;8.240;2023-05-07T04:23:19;100020.22;;;14.80;100.00
804;BME280;25687;49.976;8.240;2023-05-07T04:25:44;100023.59;;;14.81;100.00
804;BME280;25687;49.976;8.240;2023-05-07T04:28:10;100017.94;;;14.76;100.00
804;BME280;25687;49.976;8.240;2023-05-07T04:30:36;100024.72;;;14.90;100.00
804;BME280;25687;49.976;8.240;2023-05-07T04:33:01;100025.53;;;14.90;100.00
804;BME280;25687;49.976;8.240;2023-05-07T04:35:27;100028.94;;;14.91;100.00
804;BME280;25687;49.976;8.240;2023-05-07T04:37:52;100028.88;;;15.04;100.00
804;BME280;25687;49.976;8.240;2023-05-07T04:40:17;100034.19;;;15.02;100.00
804;BME280;25687;49.976;8.240;2023-05-07T04:42:42;100033.56;;;14.98;100.00
804;BME280;25687;49.976;8.240;2023-05-07T04:45:08;100031.84;;;15.22;100.00
804;BME280;25687;49.976;8.240;2023-05-07T04:47:35;100032.69;;;15.33;100.00
804;BME280;25687;49.976;8.240;2023-05-07T04:50:00;100028.19;;;15.24;100.00
804;BME280;25687;49.976;8.240;2023-05-07T04:52:26;100037.75;;;15.35;100.00
804;BME280;25687;49.976;8.240;2023-05-07T04:54:51;100033.63;;;15.21;100.00
804;BME280;25687;49.976;8.240;2023-05-07T04:57:16;100036.94;;;15.35;100.00
804;BME280;25687;49.976;8.240;2023-05-07T04:59:43;100036.56;;;15.39;100.00
804;BME280;25687;49.976;8.240;2023-05-07T05:02:10;100039.53;;;15.46;100.00
804;BME280;25687;49.976;8.240;2023-05-07T05:04:35;100042.72;;;15.49;100.00
804;BME280;25687;49.976;8.240;2023-05-07T05:07:00;100036.81;;;15.36;100.00
804;BME280;25687;49.976;8.240;2023-05-07T05:09:25;100034.09;;;15.49;100.00
804;BME280;25687;49.976;8.240;2023-05-07T05:11:51;100042.59;;;15.40;100.00
804;BME280;25687;49.976;8.240;2023-05-07T05:14:16;100048.72;;;15.50;100.00
804;BME280;25687;49.976;8.240;2023-05-07T05:16:41;100047.09;;;15.60;100.00
804;BME280;25687;49.976;8.240;2023-05-07T05:19:07;100048.38;;;15.55;100.00
804;BME280;25687;49.976;8.240;2023-05-07T05:21:32;100049.91;;;15.46;100.00
804;BME280;25687;49.976;8.240;2023-05-07T05:23:58;100052.84;;;15.53;100.00
804;BME280;25687;49.976;8.240;2023-05-07T05:26:23;100060.16;;;15.47;100.00
804;BME280;25687;49.976;8.240;2023-05-07T05:28:48;100054.63;;;15.63;100.00
804;BME280;25687;49.976;8.240;2023-05-07T05:31:13;100065.00;;;15.86;100.00
804;BME280;25687;49.976;8.240;2023-05-07T05:33:39;100066.31;;;16.03;100.00
804;BME280;25687;49.976;8.240;2023-05-07T05:36:05;100063.78;;;16.24;100.00
804;BME280;25687;49.976;8.240;2023-05-07T05:38:30;100065.16;;;16.51;100.00
804;BME280;25687;49.976;8.240;2023-05-07T05:40:56;100067.16;;;16.48;100.00
804;BME280;25687;49.976;8.240;2023-05-07T05:43:21;100074.41;;;16.33;100.00
804;BME280;25687;49.976;8.240;2023-05-07T05:45:46;100070.84;;;16.45;100.00
804;BME280;25687;49.976;8.240;2023-05-07T05:48:11;100073.75;;;16.52;100.00
804;BME280;25687;49.976;8.240;2023-05-07T05:50:37;100073.63;;;16.53;100.00
804;BME280;25687;49.976;8.240;2023-05-07T05:53:02;100064.81;;;16.77;100.00
804;BME280;25687;49.976;8.240;2023-05-07T05:55:28;100061.75;;;16.72;100.00
804;BME280;25687;49.976;8.240;2023-05-07T05:57:53;100070.53;;;16.59;100.00
804;BME280;25687;49.976;8.240;2023-05-07T06:00:18;100065.72;;;16.55;100.00
804;BME280;25687;49.976;8.240;2023-05-07T06:02:47;100062.28;;;16.54;100.00
804;BME280;25687;49.976;8.240;2023-05-07T06:05:12;100067.44;;;16.66;100.00
804;BME280;25687;49.976;8.240;2023-05-07T06:07:37;100069.75;;;16.80;100.00
804;BME280;25687;49.976;8.240;2023-05-07T06:10:03;100068.56;;;16.96;100.00
804;BME280;25687;49.976;8.240;2023-05-07T06:12:28;100067.22;;;17.01;100.00
804;BME280;25687;49.976;8.240;2023-05-07T06:14:54;100064.03;;;16.98;100.00
804;BME280;25687;49.976;8.240;2023-05-07T06:17:19;100060.13;;;17.03;100.00
804;BME280;25687;49.976;8.240;2023-05-07T06:19:45;100062.78;;;16.92;100.00
804;BME280;25687;49.976;8.240;2023-05-07T06:22:10;100069.38;;;17.17;100.00
804;BME280;25687;49.976;8.240;2023-05-07T06:24:35;100069.63;;;17.14;100.00
804;BME280;25687;49.976;8.240;2023-05-07T06:27:00;100064.00;;;17.40;100.00
804;BME280;25687;49.976;8.240;2023-05-07T06:29:26;100071.59;;;17.22;100.00
804;BME280;25687;49.976;8.240;2023-05-07T06:31:54;100067.91;;;17.24;100.00
804;BME280;25687;49.976;8.240;2023-05-07T06:34:19;100074.25;;;17.10;100.00
804;BME280;25687;49.976;8.240;2023-05-07T06:36:44;100072.66;;;16.87;100.00
804;BME280;25687;49.976;8.240;2023-05-07T06:39:10;100076.16;;;17.30;100.00
804;BME280;25687;49.976;8.240;2023-05-07T06:41:35;100075.56;;;17.47;100.00
804;BME280;25687;49.976;8.240;2023-05-07T06:44:02;100079.28;;;17.54;100.00
804;BME280;25687;49.976;8.240;2023-05-07T06:46:27;100080.03;;;17.45;100.00
804;BME280;25687;49.976;8.240;2023-05-07T06:48:53;100082.84;;;17.32;100.00
804;BME280;25687;49.976;8.240;2023-05-07T06:51:18;100082.94;;;17.21;100.00
804;BME280;25687;49.976;8.240;2023-05-07T06:53:43;100081.41;;;17.39;100.00
804;BME280;25687;49.976;8.240;2023-05-07T06:56:08;100072.47;;;17.11;100.00
804;BME280;25687;49.976;8.240;2023-05-07T06:58:34;100082.72;;;17.13;100.00
804;BME280;25687;49.976;8.240;2023-05-07T07:00:59;100087.34;;;17.30;100.00
804;BME280;25687;49.976;8.240;2023-05-07T07:03:25;100086.97;;;17.35;100.00
804;BME280;25687;49.976;8.240;2023-05-07T07:05:54;100088.78;;;17.13;100.00
804;BME280;25687;49.976;8.240;2023-05-07T07:08:19;100087.75;;;17.04;100.00
804;BME280;25687;49.976;8.240;2023-05-07T07:10:46;100090.50;;;16.91;100.00
804;BME280;25687;49.976;8.240;2023-05-07T07:13:12;100100.22;;;16.78;100.00
804;BME280;25687;49.976;8.240;2023-05-07T07:15:37;100095.47;;;16.94;100.00
804;BME280;25687;49.976;8.240;2023-05-07T07:18:02;100098.47;;;16.78;100.00
804;BME280;25687;49.976;8.240;2023-05-07T07:20:28;100095.44;;;16.62;100.00
804;BME280;25687;49.976;8.240;2023-05-07T07:22:53;100103.72;;;16.56;100.00
804;BME280;25687;49.976;8.240;2023-05-07T07:25:18;100098.41;;;16.57;100.00
804;BME280;25687;49.976;8.240;2023-05-07T07:27:44;100103.84;;;16.54;100.00
804;BME280;25687;49.976;8.240;2023-05-07T07:30:09;100104.28;;;16.71;100.00
804;BME280;25687;49.976;8.240;2023-05-07T07:32:34;100105.94;;;16.60;100.00
804;BME280;25687;49.976;8.240;2023-05-07T07:35:00;100099.44;;;16.66;100.00
804;BME280;25687;49.976;8.240;2023-05-07T07:37:25;100097.53;;;16.68;100.00
804;BME280;25687;49.976;8.240;2023-05-07T07:39:50;100095.19;;;16.65;100.00
804;BME280;25687;49.976;8.240;2023-05-07T07:42:16;100099.31;;;16.68;100.00
804;BME280;25687;49.976;8.240;2023-05-07T07:44:41;100103.75;;;16.88;100.00
804;BME280;25687;49.976;8.240;2023-05-07T07:47:06;100096.41;;;16.93;100.00
804;BME280;25687;49.976;8.240;2023-05-07T07:49:31;100101.88;;;16.79;100.00
804;BME280;25687;49.976;8.240;2023-05-07T07:51:57;100105.09;;;16.71;100.00
804;BME280;25687;49.976;8.240;2023-05-07T07:54:24;100105.63;;;16.86;100.00
804;BME280;25687;49.976;8.240;2023-05-07T07:56:49;100111.53;;;16.88;100.00
804;BME280;25687;49.976;8.240;2023-05-07T07:59:16;100107.75;;;16.92;100.00
804;BME280;25687;49.976;8.240;2023-05-07T08:01:44;100106.97;;;17.13;100.00
804;BME280;25687;49.976;8.240;2023-05-07T08:04:09;100108.22;;;17.19;100.00
804;BME280;25687;49.976;8.240;2023-05-07T08:06:34;100112.22;;;17.23;100.00
804;BME280;25687;49.976;8.240;2023-05-07T08:08:59;100113.03;;;17.45;100.00
804;BME280;25687;49.976;8.240;2023-05-07T08:11:25;100105.00;;;17.48;100.00
804;BME280;25687;49.976;8.240;2023-05-07T08:13:51;100100.16;;;17.64;100.00
804;BME280;25687;49.976;8.240;2023-05-07T08:16:16;100103.09;;;18.12;100.00
804;BME280;25687;49.976;8.240;2023-05-07T08:18:41;100103.88;;;18.43;100.00
804;BME280;25687;49.976;8.240;2023-05-07T08:21:06;100100.44;;;18.52;100.00
804;BME280;25687;49.976;8.240;2023-05-07T08:23:32;100112.09;;;18.48;100.00
804;BME280;25687;49.976;8.240;2023-05-07T08:25:59;100103.78;;;18.94;100.00
804;BME280;25687;49.976;8.240;2023-05-07T08:28:24;100107.59;;;18.70;100.00
804;BME280;25687;49.976;8.240;2023-05-07T08:30:50;100105.69;;;18.82;100.00
804;BME280;25687;49.976;8.240;2023-05-07T08:33:15;100106.22;;;19.25;100.00
804;BME280;25687;49.976;8.240;2023-05-07T08:35:40;100108.41;;;19.19;100.00
804;BME280;25687;49.976;8.240;2023-05-07T08:38:05;100107.47;;;19.01;100.00
804;BME280;25687;49.976;8.240;2023-05-07T08:40:36;100110.03;;;18.81;100.00
804;BME280;25687;49.976;8.240;2023-05-07T08:43:02;100109.63;;;19.82;100.00
804;BME280;25687;49.976;8.240;2023-05-07T08:45:30;100114.88;;;20.38;94.70
804;BME280;25687;49.976;8.240;2023-05-07T08:48:17;100117.81;;;20.25;94.61
804;BME280;25687;49.976;8.240;2023-05-07T08:50:46;100122.16;;;20.80;93.13
804;BME280;25687;49.976;8.240;2023-05-07T08:53:12;100111.16;;;21.39;87.45
804;BME280;25687;49.976;8.240;2023-05-07T08:55:37;100113.56;;;21.33;87.54
804;BME280;25687;49.976;8.240;2023-05-07T08:58:03;100106.94;;;21.47;89.13
804;BME280;25687;49.976;8.240;2023-05-07T09:00:28;100116.25;;;20.78;87.60
804;BME280;25687;49.976;8.240;2023-05-07T09:02:54;100116.22;;;21.15;87.05
804;BME280;25687;49.976;8.240;2023-05-07T09:05:20;100128.63;;;21.57;84.85
804;BME280;25687;49.976;8.240;2023-05-07T09:07:45;100115.66;;;21.55;83.77
804;BME280;25687;49.976;8.240;2023-05-07T09:10:11;100120.34;;;22.55;77.45
804;BME280;25687;49.976;8.240;2023-05-07T09:12:37;100132.34;;;22.91;72.88
804;BME280;25687;49.976;8.240;2023-05-07T09:15:03;100121.69;;;23.26;72.24
804;BME280;25687;49.976;8.240;2023-05-07T09:17:28;100125.16;;;23.26;67.36
804;BME280;25687;49.976;8.240;2023-05-07T09:19:54;100123.34;;;22.18;74.15
804;BME280;25687;49.976;8.240;2023-05-07T09:22:19;100119.50;;;22.55;74.38
804;BME280;25687;49.976;8.240;2023-05-07T09:24:49;100121.00;;;22.49;73.03
804;BME280;25687;49.976;8.240;2023-05-07T09:27:15;100115.94;;;22.89;71.88
804;BME280;25687;49.976;8.240;2023-05-07T09:29:40;100124.66;;;22.81;68.88
804;BME280;25687;49.976;8.240;2023-05-07T09:32:07;100118.56;;;22.72;70.78
804;BME280;25687;49.976;8.240;2023-05-07T09:34:33;100126.78;;;22.78;73.75
804;BME280;25687;49.976;8.240;2023-05-07T09:37:01;100127.56;;;22.45;75.54
804;BME280;25687;49.976;8.240;2023-05-07T09:39:39;100122.88;;;21.80;80.03
804;BME280;25687;49.976;8.240;2023-05-07T09:42:04;100117.31;;;21.83;83.39
804;BME280;25687;49.976;8.240;2023-05-07T09:44:31;100122.66;;;21.73;83.57
804;BME280;25687;49.976;8.240;2023-05-07T09:46:59;100110.09;;;21.50;85.12
804;BME280;25687;49.976;8.240;2023-05-07T09:49:28;100113.47;;;22.03;80.74
804;BME280;25687;49.976;8.240;2023-05-07T09:51:55;100109.16;;;21.94;83.15
804;BME280;25687;49.976;8.240;2023-05-07T09:54:22;100110.56;;;22.15;80.62
804;BME280;25687;49.976;8.240;2023-05-07T09:56:52;100116.50;;;21.90;80.45
804;BME280;25687;49.976;8.240;2023-05-07T09:59:18;100111.31;;;21.99;77.27
804;BME280;25687;49.976;8.240;2023-05-07T10:01:45;100112.16;;;23.08;69.34
804;BME280;25687;49.976;8.240;2023-05-07T10:04:11;100115.63;;;23.33;68.30
804;BME280;25687;49.976;8.240;2023-05-07T10:06:37;100102.81;;;24.81;60.47
804;BME280;25687;49.976;8.240;2023-05-07T10:09:03;100100.44;;;25.09;53.93
804;BME280;25687;49.976;8.240;2023-05-07T10:11:32;100107.97;;;24.43;57.57
804;BME280;25687;49.976;8.240;2023-05-07T10:13:58;100095.00;;;24.64;56.37
804;BME280;25687;49.976;8.240;2023-05-07T10:16:25;100106.13;;;25.13;54.58
804;BME280;25687;49.976;8.240;2023-05-07T10:18:50;100097.53;;;25.19;52.78
804;BME280;25687;49.976;8.240;2023-05-07T10:21:21;100091.16;;;25.37;52.99
804;BME280;25687;49.976;8.240;2023-05-07T10:23:55;100102.66;;;25.66;52.04
804;BME280;25687;49.976;8.240;2023-05-07T10:26:23;100103.56;;;24.67;54.24
804;BME280;25687;49.976;8.240;2023-05-07T10:28:54;100097.69;;;23.62;60.34
804;BME280;25687;49.976;8.240;2023-05-07T10:31:48;100100.25;;;23.78;60.03
804;BME280;25687;49.976;8.240;2023-05-07T10:34:21;100097.59;;;24.26;58.55
804;BME280;25687;49.976;8.240;2023-05-07T10:36:48;100101.25;;;24.09;56.85
804;BME280;25687;49.976;8.240;2023-05-07T10:39:14;100095.78;;;23.79;58.25
804;BME280;25687;49.976;8.240;2023-05-07T10:41:40;100108.38;;;23.52;60.13
804;BME280;25687;49.976;8.240;2023-05-07T10:44:05;100101.84;;;23.07;63.67
804;BME280;25687;49.976;8.240;2023-05-07T10:46:30;100105.25;;;23.48;63.84
804;BME280;25687;49.976;8.240;2023-05-07T10:51:26;100099.56;;;22.95;64.05
804;BME280;25687;49.976;8.240;2023-05-07T10:56:41;100092.69;;;22.78;69.78
804;BME280;25687;49.976;8.240;2023-05-07T11:02:01;100091.34;;;23.40;65.44
804;BME280;25687;49.976;8.240;2023-05-07T11:04:31;100085.38;;;23.54;63.52
804;BME280;25687;49.976;8.240;2023-05-07T11:15:07;100082.94;;;23.52;62.60
804;BME280;25687;49.976;8.240;2023-05-07T11:17:34;100086.63;;;23.18;59.19
804;BME280;25687;49.976;8.240;2023-05-07T11:20:01;100079.13;;;23.63;58.97
804;BME280;25687;49.976;8.240;2023-05-07T11:24:55;100074.19;;;24.08;58.62
804;BME280;25687;49.976;8.240;2023-05-07T11:27:24;100079.66;;;23.90;55.62
804;BME280;25687;49.976;8.240;2023-05-07T11:29:50;100071.91;;;23.65;55.77
804;BME280;25687;49.976;8.240;2023-05-07T11:32:15;100068.53;;;23.88;55.30
804;BME280;25687;49.976;8.240;2023-05-07T11:34:47;100073.28;;;23.84;59.09
804;BME280;25687;49.976;8.240;2023-05-07T11:37:19;100074.47;;;23.74;55.19
804;BME280;25687;49.976;8.240;2023-05-07T11:39:45;100071.75;;;23.59;57.47
804;BME280;25687;49.976;8.240;2023-05-07T11:42:30;100063.94;;;23.82;57.95
804;BME280;25687;49.976;8.240;2023-05-07T11:44:56;100065.78;;;23.09;59.16
804;BME280;25687;49.976;8.240;2023-05-07T11:47:21;100066.91;;;23.14;60.88
804;BME280;25687;49.976;8.240;2023-05-07T11:49:54;100064.53;;;23.61;60.04
804;BME280;25687;49.976;8.240;2023-05-07T11:52:21;100071.47;;;23.85;56.38
804;BME280;25687;49.976;8.240;2023-05-07T11:54:50;100070.56;;;24.09;53.39
804;BME280;25687;49.976;8.240;2023-05-07T11:57:15;100072.16;;;23.79;54.68
804;BME280;25687;49.976;8.240;2023-05-07T11:59:41;100060.09;;;23.61;55.95
804;BME280;25687;49.976;8.240;2023-05-07T12:02:07;100054.34;;;23.66;53.99
804;BME280;25687;49.976;8.240;2023-05-07T12:04:32;100065.84;;;23.57;53.47
804;BME280;25687;49.976;8.240;2023-05-07T12:06:58;100065.91;;;23.15;55.75
804;BME280;25687;49.976;8.240;2023-05-07T12:09:23;100058.53;;;23.35;55.17
804;BME280;25687;49.976;8.240;2023-05-07T12:11:48;100062.59;;;23.46;54.83
804;BME280;25687;49.976;8.240;2023-05-07T12:14:15;100056.97;;;23.58;56.71
804;BME280;25687;49.976;8.240;2023-05-07T12:16:44;100058.63;;;24.30;51.23
804;BME280;25687;49.976;8.240;2023-05-07T12:19:10;100058.22;;;24.41;49.67
804;BME280;25687;49.976;8.240;2023-05-07T12:21:37;100053.94;;;23.77;52.43
804;BME280;25687;49.976;8.240;2023-05-07T12:24:03;100056.22;;;23.41;54.28
804;BME280;25687;49.976;8.240;2023-05-07T12:26:29;100049.28;;;23.48;56.24
804;BME280;25687;49.976;8.240;2023-05-07T12:28:54;100052.59;;;23.42;55.08
804;BME280;25687;49.976;8.240;2023-05-07T12:31:20;100052.13;;;23.38;56.71
804;BME280;25687;49.976;8.240;2023-05-07T12:33:45;100049.84;;;23.27;55.20
804;BME280;25687;49.976;8.240;2023-05-07T12:36:12;100046.56;;;23.33;56.53
804;BME280;25687;49.976;8.240;2023-05-07T12:38:38;100049.34;;;23.40;53.45
804;BME280;25687;49.976;8.240;2023-05-07T12:41:06;100053.72;;;23.56;54.58
804;BME280;25687;49.976;8.240;2023-05-07T12:43:32;100053.25;;;23.44;53.74
804;BME280;25687;49.976;8.240;2023-05-07T12:46:00;100050.69;;;23.27;54.49
804;BME280;25687;49.976;8.240;2023-05-07T12:48:27;100045.78;;;23.64;50.98
804;BME280;25687;49.976;8.240;2023-05-07T12:50:53;100046.16;;;23.61;50.00
804;BME280;25687;49.976;8.240;2023-05-07T12:53:21;100054.78;;;23.78;49.10
804;BME280;25687;49.976;8.240;2023-05-07T12:55:48;100053.72;;;23.56;48.72
804;BME280;25687;49.976;8.240;2023-05-07T12:58:25;100051.34;;;23.13;48.20
804;BME280;25687;49.976;8.240;2023-05-07T13:00:51;100049.28;;;23.88;47.94
804;BME280;25687;49.976;8.240;2023-05-07T13:03:47;100039.59;;;24.28;44.60
804;BME280;25687;49.976;8.240;2023-05-07T13:06:13;100043.97;;;24.36;45.33
804;BME280;25687;49.976;8.240;2023-05-07T13:08:41;100036.44;;;24.32;44.90
804;BME280;25687;49.976;8.240;2023-05-07T13:11:11;100041.78;;;24.16;44.72
804;BME280;25687;49.976;8.240;2023-05-07T13:13:38;100035.19;;;23.97;44.81
804;BME280;25687;49.976;8.240;2023-05-07T13:16:05;100033.97;;;24.54;44.10
804;BME280;25687;49.976;8.240;2023-05-07T13:18:32;100020.84;;;25.07;42.81